createdAt,value
2023-12-01T00:00:17.486Z,1.39
2023-12-01T00:05:19.052Z,1.29
2023-12-01T00:10:22.499Z,1.18
2023-12-01T00:15:24.078Z,1.01
2023-12-01T00:20:25.721Z,0.80
2023-12-01T00:25:27.326Z,0.58
2023-12-01T00:30:28.917Z,0.38
2023-12-01T00:35:30.493Z,0.28
2023-12-01T00:40:32.022Z,0.26
2023-12-01T00:45:33.582Z,0.19
2023-12-01T00:50:35.215Z,0.24
2023-12-01T00:55:37.327Z,0.19
2023-12-01T01:00:38.983Z,0.30
2023-12-01T01:05:40.909Z,0.32
2023-12-01T01:10:42.504Z,0.51
2023-12-01T01:15:44.161Z,0.45
2023-12-01T01:20:45.915Z,0.56
2023-12-01T01:25:47.439Z,0.65
2023-12-01T01:30:49.024Z,0.70
2023-12-01T01:35:50.661Z,0.86
2023-12-01T01:40:52.309Z,0.73
2023-12-01T01:46:05.390Z,0.76
2023-12-01T01:51:07.036Z,0.86
2023-12-01T01:56:09.154Z,0.90
2023-12-01T02:01:10.991Z,0.92
2023-12-01T02:06:12.734Z,1.03
2023-12-01T02:11:14.363Z,1.05
2023-12-01T02:16:15.926Z,1.05
2023-12-01T02:21:21.832Z,1.09
2023-12-01T02:26:24.007Z,1.07
2023-12-01T02:31:25.759Z,0.98
2023-12-01T02:36:27.414Z,1.07
2023-12-01T02:41:29.057Z,1.17
2023-12-01T02:46:30.702Z,1.10
2023-12-01T02:51:32.326Z,1.17
2023-12-01T02:56:33.905Z,1.15
2023-12-01T03:01:35.626Z,1.21
2023-12-01T03:06:37.372Z,1.03
2023-12-01T03:11:39.049Z,0.94
2023-12-01T03:16:40.716Z,0.95
2023-12-01T03:21:42.699Z,0.95
2023-12-01T03:26:44.264Z,1.07
2023-12-01T03:31:46.021Z,1.05
2023-12-01T03:36:47.622Z,1.14
2023-12-01T03:41:49.372Z,1.07
2023-12-01T03:46:51.275Z,1.04
2023-12-01T03:51:53.091Z,1.19
2023-12-01T03:56:54.700Z,1.10
2023-12-01T04:01:56.284Z,0.92
2023-12-01T04:06:57.987Z,1.07
2023-12-01T04:11:59.676Z,1.16
2023-12-01T04:17:01.481Z,1.06
2023-12-01T04:22:06.899Z,1.30
2023-12-01T04:27:08.515Z,1.37
2023-12-01T04:32:10.217Z,1.19
2023-12-01T04:37:11.853Z,1.16
2023-12-01T04:42:13.644Z,1.09
2023-12-01T04:47:15.304Z,1.13
2023-12-01T04:52:17.000Z,1.13
2023-12-01T04:57:18.568Z,1.21
2023-12-01T05:02:20.112Z,1.19
2023-12-01T05:07:23.600Z,1.37
2023-12-01T05:12:25.310Z,1.22
2023-12-01T05:17:26.943Z,1.22
2023-12-01T05:22:28.577Z,1.19
2023-12-01T05:27:30.132Z,1.21
2023-12-01T05:32:31.852Z,1.32
2023-12-01T05:37:33.526Z,1.22
2023-12-01T05:42:35.222Z,1.25
2023-12-01T05:47:36.761Z,1.19
2023-12-01T05:52:38.380Z,1.26
2023-12-01T05:57:39.999Z,1.29
2023-12-01T06:02:41.926Z,1.33
2023-12-01T06:07:44.617Z,1.35
2023-12-01T06:12:46.683Z,1.48
2023-12-01T06:17:49.144Z,1.31
2023-12-01T06:22:54.904Z,1.45
2023-12-01T06:27:57.890Z,1.43
2023-12-01T06:32:59.684Z,1.41
2023-12-01T06:38:01.283Z,1.54
2023-12-01T06:43:03.022Z,1.55
2023-12-01T06:48:04.646Z,1.52
2023-12-01T06:53:06.262Z,1.48
2023-12-01T06:58:08.048Z,1.44
2023-12-01T07:03:10.245Z,1.42
2023-12-01T07:08:13.405Z,1.47
2023-12-01T07:13:15.517Z,1.48
2023-12-01T07:18:17.245Z,1.31
2023-12-01T07:23:19.197Z,1.40
2023-12-01T07:28:20.833Z,1.40
2023-12-01T07:33:22.723Z,1.38
2023-12-01T07:38:24.351Z,1.40
2023-12-01T07:43:26.094Z,1.39
2023-12-01T07:48:27.946Z,1.34
2023-12-01T07:53:29.728Z,1.38
2023-12-01T07:58:31.411Z,1.15
2023-12-01T08:03:33.157Z,1.17
2023-12-01T08:08:39.855Z,1.19
2023-12-01T08:13:42.124Z,1.10
2023-12-01T08:18:44.048Z,1.11
2023-12-01T08:23:45.777Z,1.05
2023-12-01T08:28:47.391Z,1.06
2023-12-01T08:33:49.040Z,1.22
2023-12-01T08:38:50.654Z,1.26
2023-12-01T08:43:52.756Z,1.25
2023-12-01T08:48:54.772Z,1.42
2023-12-01T08:53:56.560Z,1.56
2023-12-01T08:58:58.208Z,1.58
2023-12-01T09:03:59.972Z,1.51
2023-12-01T09:09:01.673Z,1.57
2023-12-01T09:14:03.382Z,1.77
2023-12-01T09:19:07.430Z,1.91
2023-12-01T09:24:09.540Z,1.69
2023-12-01T09:29:11.381Z,1.78
2023-12-01T09:34:12.997Z,1.84
2023-12-01T09:39:14.619Z,2.03
2023-12-01T09:44:16.291Z,1.96
2023-12-01T09:49:19.102Z,2.05
2023-12-01T09:54:23.839Z,2.03
2023-12-01T09:59:25.657Z,2.09
2023-12-01T10:04:27.669Z,1.88
2023-12-01T10:09:29.834Z,1.79
2023-12-01T10:14:31.367Z,1.61
2023-12-01T10:19:33.479Z,1.82
2023-12-01T10:24:35.201Z,1.87
2023-12-01T10:29:36.801Z,2.02
2023-12-01T10:34:38.698Z,1.87
2023-12-01T10:39:40.641Z,1.89
2023-12-01T10:44:43.262Z,1.86
2023-12-01T10:49:45.460Z,1.92
2023-12-01T10:54:47.907Z,2.12
2023-12-01T10:59:52.589Z,2.02
2023-12-01T11:04:54.476Z,2.20
2023-12-01T11:09:58.772Z,2.13
2023-12-01T11:15:06.891Z,2.20
2023-12-01T11:20:31.551Z,2.42
2023-12-01T11:25:43.218Z,2.06
2023-12-01T11:31:00.218Z,2.08
2023-12-01T11:36:20.496Z,2.11
2023-12-01T11:41:24.969Z,2.32
2023-12-01T11:46:27.739Z,1.91
2023-12-01T11:51:29.457Z,2.01
2023-12-01T11:56:31.204Z,2.39
2023-12-01T12:01:32.750Z,2.54
2023-12-01T12:06:34.773Z,2.38
2023-12-01T12:11:37.021Z,2.53
2023-12-01T12:16:38.735Z,2.67
2023-12-01T12:21:40.435Z,2.53
2023-12-01T12:26:42.568Z,2.74
2023-12-01T12:31:44.367Z,2.73
2023-12-01T12:36:46.134Z,2.67
2023-12-01T12:41:51.824Z,2.66
2023-12-01T12:47:03.834Z,2.59
2023-12-01T12:52:05.765Z,2.59
2023-12-01T12:57:07.358Z,2.67
2023-12-01T13:02:09.195Z,2.66
2023-12-01T13:07:10.861Z,2.55
2023-12-01T13:12:12.502Z,2.80
2023-12-01T13:17:14.052Z,2.83
2023-12-01T13:22:15.594Z,2.88
2023-12-01T13:27:17.142Z,2.59
2023-12-01T13:32:21.545Z,2.96
2023-12-01T13:37:23.143Z,3.07
2023-12-01T13:42:24.706Z,3.15
2023-12-01T13:47:26.627Z,2.94
2023-12-01T13:52:28.222Z,2.89
2023-12-01T13:57:29.833Z,2.80
2023-12-01T14:02:31.823Z,2.82
2023-12-01T14:07:33.401Z,2.75
2023-12-01T14:12:35.107Z,2.69
2023-12-01T14:17:37.174Z,2.45
2023-12-01T14:22:39.842Z,2.50
2023-12-01T14:27:42.302Z,2.29
2023-12-01T14:32:44.519Z,2.46
2023-12-01T14:37:46.209Z,2.55
2023-12-01T14:42:47.778Z,2.55
2023-12-01T14:47:49.364Z,2.51
2023-12-01T14:52:51.002Z,2.38
2023-12-01T14:57:52.614Z,2.13
2023-12-01T15:02:54.279Z,2.24
2023-12-01T15:07:55.891Z,2.13
2023-12-01T15:12:57.443Z,2.29
2023-12-01T15:17:59.161Z,2.25
2023-12-01T15:23:00.858Z,2.30
2023-12-01T15:28:02.494Z,2.07
2023-12-01T15:33:04.203Z,2.22
2023-12-01T15:38:05.783Z,2.20
2023-12-01T15:43:07.454Z,2.25
2023-12-01T15:48:09.073Z,2.10
2023-12-01T15:53:10.824Z,2.13
2023-12-01T15:58:12.530Z,1.92
2023-12-01T16:03:14.749Z,2.11
2023-12-01T16:08:21.000Z,2.04
2023-12-01T16:13:23.135Z,1.91
2023-12-01T16:18:25.473Z,2.07
2023-12-01T16:23:27.333Z,2.07
2023-12-01T16:28:31.574Z,2.01
2023-12-01T16:33:33.364Z,1.98
2023-12-01T16:38:35.009Z,1.95
2023-12-01T16:43:36.749Z,1.89
2023-12-01T16:48:38.524Z,1.83
2023-12-01T16:53:40.395Z,1.87
2023-12-01T16:58:42.103Z,1.70
2023-12-01T17:03:45.052Z,1.68
2023-12-01T17:08:50.634Z,1.73
2023-12-01T17:13:53.957Z,1.90
2023-12-01T17:18:57.089Z,1.79
2023-12-01T17:24:01.216Z,1.78
2023-12-01T17:29:13.655Z,1.82
2023-12-01T17:34:22.616Z,1.80
2023-12-01T17:39:25.092Z,1.73
2023-12-01T17:44:26.680Z,1.64
2023-12-01T17:49:28.618Z,1.62
2023-12-01T17:54:31.542Z,1.87
2023-12-01T17:59:34.027Z,1.73
2023-12-01T18:04:36.595Z,1.73
2023-12-01T18:09:40.080Z,1.51
2023-12-01T18:14:42.484Z,1.75
2023-12-01T18:19:45.455Z,1.63
2023-12-01T18:24:47.112Z,1.53
2023-12-01T18:29:48.775Z,1.63
2023-12-01T18:34:50.469Z,1.56
2023-12-01T18:39:52.019Z,1.65
2023-12-01T18:44:53.643Z,1.59
2023-12-01T18:49:55.278Z,1.46
2023-12-01T18:54:57.089Z,1.56
2023-12-01T18:59:58.799Z,1.60
2023-12-01T19:05:00.632Z,1.42
2023-12-01T19:10:02.187Z,1.47
2023-12-01T19:15:04.020Z,1.39
2023-12-01T19:20:06.285Z,1.51
2023-12-01T19:25:08.307Z,1.43
2023-12-01T19:30:10.554Z,1.36
2023-12-01T19:35:12.153Z,1.55
2023-12-01T19:40:13.880Z,1.37
2023-12-01T19:45:15.615Z,1.47
2023-12-01T19:50:17.294Z,1.37
2023-12-01T19:55:18.932Z,1.24
2023-12-01T20:00:21.469Z,1.30
2023-12-01T20:05:23.268Z,0.99
2023-12-01T20:10:24.836Z,0.92
2023-12-01T20:15:26.486Z,1.00
2023-12-01T20:20:28.177Z,1.05
2023-12-01T20:25:29.777Z,0.77
2023-12-01T20:30:31.388Z,0.90
2023-12-01T20:35:32.973Z,0.92
2023-12-01T20:40:34.634Z,0.90
2023-12-01T20:45:36.237Z,1.02
2023-12-01T20:50:37.870Z,1.07
2023-12-01T20:55:40.990Z,1.01
2023-12-01T21:00:43.516Z,0.96
2023-12-01T21:05:45.122Z,0.93
2023-12-01T21:10:46.789Z,0.93
2023-12-01T21:15:48.432Z,0.84
2023-12-01T21:20:50.084Z,0.79
2023-12-01T21:25:52.027Z,0.78
2023-12-01T21:30:53.607Z,0.92
2023-12-01T21:35:55.297Z,0.74
2023-12-01T21:40:56.901Z,0.64
2023-12-01T21:45:58.612Z,0.69
2023-12-01T21:51:00.288Z,0.70
2023-12-01T21:56:02.103Z,0.62
2023-12-01T22:01:03.605Z,0.75
2023-12-01T22:06:05.187Z,0.70
2023-12-01T22:11:06.900Z,0.72
2023-12-01T22:16:08.768Z,0.55
2023-12-01T22:21:10.357Z,0.65
2023-12-01T22:26:11.863Z,0.54
2023-12-01T22:31:13.460Z,0.40
2023-12-01T22:36:15.024Z,0.63
2023-12-01T22:41:20.170Z,0.74
2023-12-01T22:46:21.660Z,0.47
2023-12-01T22:51:23.177Z,0.58
2023-12-01T22:56:24.773Z,0.49
2023-12-01T23:01:26.316Z,0.59
2023-12-01T23:06:27.982Z,0.39
2023-12-01T23:11:29.560Z,0.41
2023-12-01T23:16:31.012Z,0.39
2023-12-01T23:21:32.640Z,0.41
2023-12-01T23:26:34.161Z,0.36
2023-12-01T23:31:35.641Z,0.42
2023-12-01T23:36:37.186Z,0.26
2023-12-01T23:41:38.683Z,0.27
2023-12-01T23:46:40.207Z,0.38
2023-12-01T23:51:41.666Z,0.32
2023-12-01T23:56:43.129Z,0.43
